sensor_id;sensor_type;location;lat;lon;timestamp;P1;durP1;ratioP1;P2;durP2;ratioP2
70707;SDS011;58277;47.316;18.908;2024-03-02T00:01:34;38.77;;;19.07;;
70707;SDS011;58277;47.316;18.908;2024-03-02T00:03:57;44.17;;;19.52;;
70707;SDS011;58277;47.316;18.908;2024-03-02T00:06:20;41.95;;;19.40;;
70707;SDS011;58277;47.316;18.908;2024-03-02T00:08:44;48.63;;;20.02;;
70707;SDS011;58277;47.316;18.908;2024-03-02T00:11:07;41.03;;;20.10;;
70707;SDS011;58277;47.316;18.908;2024-03-02T00:13:30;40.43;;;18.50;;
70707;SDS011;58277;47.316;18.908;2024-03-02T00:15:55;42.03;;;19.13;;
70707;SDS011;58277;47.316;18.908;2024-03-02T00:18:25;44.65;;;19.50;;
70707;SDS011;58277;47.316;18.908;2024-03-02T00:20:49;47.83;;;20.30;;
70707;SDS011;58277;47.316;18.908;2024-03-02T00:23:16;43.92;;;19.67;;
70707;SDS011;58277;47.316;18.908;2024-03-02T00:25:43;46.27;;;19.60;;
70707;SDS011;58277;47.316;18.908;2024-03-02T00:33:17;45.35;;;19.45;;
70707;SDS011;58277;47.316;18.908;2024-03-02T00:35:43;49.95;;;20.65;;
70707;SDS011;58277;47.316;18.908;2024-03-02T00:38:06;44.10;;;19.90;;
70707;SDS011;58277;47.316;18.908;2024-03-02T00:40:29;44.35;;;19.63;;
70707;SDS011;58277;47.316;18.908;2024-03-02T00:42:52;41.10;;;19.52;;
70707;SDS011;58277;47.316;18.908;2024-03-02T00:45:15;45.42;;;19.08;;
70707;SDS011;58277;47.316;18.908;2024-03-02T00:47:38;42.13;;;19.02;;
70707;SDS011;58277;47.316;18.908;2024-03-02T00:50:01;41.47;;;19.60;;
70707;SDS011;58277;47.316;18.908;2024-03-02T00:52:31;44.28;;;19.88;;
70707;SDS011;58277;47.316;18.908;2024-03-02T00:54:57;43.05;;;18.63;;
70707;SDS011;58277;47.316;18.908;2024-03-02T00:57:20;43.60;;;19.42;;
70707;SDS011;58277;47.316;18.908;2024-03-02T00:59:42;41.08;;;19.55;;
70707;SDS011;58277;47.316;18.908;2024-03-02T01:02:05;40.03;;;18.77;;
70707;SDS011;58277;47.316;18.908;2024-03-02T01:04:28;41.42;;;18.35;;
70707;SDS011;58277;47.316;18.908;2024-03-02T01:06:51;43.53;;;18.58;;
70707;SDS011;58277;47.316;18.908;2024-03-02T01:09:13;44.05;;;18.20;;
70707;SDS011;58277;47.316;18.908;2024-03-02T01:11:36;39.45;;;18.05;;
70707;SDS011;58277;47.316;18.908;2024-03-02T01:13:59;39.43;;;17.50;;
70707;SDS011;58277;47.316;18.908;2024-03-02T01:16:22;40.10;;;17.92;;
70707;SDS011;58277;47.316;18.908;2024-03-02T01:18:45;37.58;;;16.60;;
70707;SDS011;58277;47.316;18.908;2024-03-02T01:21:08;39.78;;;17.20;;
70707;SDS011;58277;47.316;18.908;2024-03-02T01:23:31;38.45;;;16.65;;
70707;SDS011;58277;47.316;18.908;2024-03-02T01:25:54;41.00;;;16.63;;
70707;SDS011;58277;47.316;18.908;2024-03-02T01:28:18;38.90;;;16.42;;
70707;SDS011;58277;47.316;18.908;2024-03-02T01:30:43;39.40;;;17.05;;
70707;SDS011;58277;47.316;18.908;2024-03-02T01:33:06;40.22;;;16.65;;
70707;SDS011;58277;47.316;18.908;2024-03-02T01:35:29;36.78;;;16.90;;
70707;SDS011;58277;47.316;18.908;2024-03-02T01:37:51;34.60;;;15.77;;
70707;SDS011;58277;47.316;18.908;2024-03-02T01:40:14;36.10;;;16.40;;
70707;SDS011;58277;47.316;18.908;2024-03-02T01:42:40;35.28;;;16.70;;
70707;SDS011;58277;47.316;18.908;2024-03-02T01:45:06;37.47;;;16.63;;
70707;SDS011;58277;47.316;18.908;2024-03-02T01:47:30;34.80;;;15.85;;
70707;SDS011;58277;47.316;18.908;2024-03-02T01:49:52;33.17;;;16.43;;
70707;SDS011;58277;47.316;18.908;2024-03-02T01:52:15;36.58;;;16.63;;
70707;SDS011;58277;47.316;18.908;2024-03-02T01:54:38;36.67;;;15.90;;
70707;SDS011;58277;47.316;18.908;2024-03-02T01:57:01;40.10;;;16.58;;
70707;SDS011;58277;47.316;18.908;2024-03-02T01:59:24;37.90;;;16.48;;
70707;SDS011;58277;47.316;18.908;2024-03-02T02:01:47;35.70;;;16.60;;
70707;SDS011;58277;47.316;18.908;2024-03-02T02:04:10;35.75;;;16.50;;
70707;SDS011;58277;47.316;18.908;2024-03-02T02:06:33;37.47;;;17.25;;
70707;SDS011;58277;47.316;18.908;2024-03-02T02:08:56;37.58;;;17.10;;
70707;SDS011;58277;47.316;18.908;2024-03-02T02:11:19;40.70;;;16.77;;
70707;SDS011;58277;47.316;18.908;2024-03-02T02:13:42;37.57;;;16.80;;
70707;SDS011;58277;47.316;18.908;2024-03-02T02:16:06;39.15;;;17.30;;
70707;SDS011;58277;47.316;18.908;2024-03-02T02:18:29;40.53;;;17.75;;
70707;SDS011;58277;47.316;18.908;2024-03-02T02:20:52;35.58;;;17.45;;
70707;SDS011;58277;47.316;18.908;2024-03-02T02:23:14;38.75;;;17.63;;
70707;SDS011;58277;47.316;18.908;2024-03-02T02:25:37;37.87;;;17.57;;
70707;SDS011;58277;47.316;18.908;2024-03-02T02:28:00;43.35;;;17.80;;
70707;SDS011;58277;47.316;18.908;2024-03-02T02:30:25;36.22;;;17.13;;
70707;SDS011;58277;47.316;18.908;2024-03-02T02:32:52;41.03;;;17.35;;
70707;SDS011;58277;47.316;18.908;2024-03-02T02:35:15;38.35;;;17.42;;
70707;SDS011;58277;47.316;18.908;2024-03-02T02:37:38;41.47;;;17.57;;
70707;SDS011;58277;47.316;18.908;2024-03-02T02:40:01;37.60;;;17.27;;
70707;SDS011;58277;47.316;18.908;2024-03-02T02:42:24;40.42;;;17.58;;
70707;SDS011;58277;47.316;18.908;2024-03-02T02:44:47;36.33;;;17.45;;
70707;SDS011;58277;47.316;18.908;2024-03-02T02:47:10;37.10;;;16.70;;
70707;SDS011;58277;47.316;18.908;2024-03-02T02:49:32;38.10;;;16.53;;
70707;SDS011;58277;47.316;18.908;2024-03-02T02:51:55;38.28;;;17.00;;
70707;SDS011;58277;47.316;18.908;2024-03-02T02:54:18;34.88;;;15.90;;
70707;SDS011;58277;47.316;18.908;2024-03-02T02:56:42;38.85;;;17.50;;
70707;SDS011;58277;47.316;18.908;2024-03-02T02:59:04;37.35;;;17.55;;
70707;SDS011;58277;47.316;18.908;2024-03-02T03:01:27;38.83;;;17.10;;
70707;SDS011;58277;47.316;18.908;2024-03-02T03:03:50;38.92;;;17.83;;
70707;SDS011;58277;47.316;18.908;2024-03-02T03:06:13;38.40;;;17.92;;
70707;SDS011;58277;47.316;18.908;2024-03-02T03:08:36;38.40;;;17.80;;
70707;SDS011;58277;47.316;18.908;2024-03-02T03:10:59;36.50;;;16.23;;
70707;SDS011;58277;47.316;18.908;2024-03-02T03:13:22;37.00;;;17.47;;
70707;SDS011;58277;47.316;18.908;2024-03-02T03:15:45;38.47;;;17.50;;
70707;SDS011;58277;47.316;18.908;2024-03-02T03:18:08;38.78;;;17.25;;
70707;SDS011;58277;47.316;18.908;2024-03-02T03:20:33;39.05;;;18.02;;
70707;SDS011;58277;47.316;18.908;2024-03-02T03:22:59;38.38;;;17.55;;
70707;SDS011;58277;47.316;18.908;2024-03-02T03:25:22;36.33;;;17.17;;
70707;SDS011;58277;47.316;18.908;2024-03-02T03:27:44;37.60;;;17.67;;
70707;SDS011;58277;47.316;18.908;2024-03-02T03:30:08;39.30;;;18.02;;
70707;SDS011;58277;47.316;18.908;2024-03-02T03:32:32;38.55;;;18.27;;
70707;SDS011;58277;47.316;18.908;2024-03-02T03:34:55;40.15;;;18.23;;
70707;SDS011;58277;47.316;18.908;2024-03-02T03:37:17;37.93;;;17.63;;
70707;SDS011;58277;47.316;18.908;2024-03-02T03:39:40;37.63;;;17.98;;
70707;SDS011;58277;47.316;18.908;2024-03-02T03:42:03;40.78;;;17.77;;
70707;SDS011;58277;47.316;18.908;2024-03-02T03:44:26;38.13;;;17.42;;
70707;SDS011;58277;47.316;18.908;2024-03-02T03:46:49;39.70;;;17.95;;
70707;SDS011;58277;47.316;18.908;2024-03-02T03:49:11;37.37;;;17.63;;
70707;SDS011;58277;47.316;18.908;2024-03-02T03:51:34;41.45;;;17.65;;
70707;SDS011;58277;47.316;18.908;2024-03-02T03:53:57;39.63;;;17.88;;
70707;SDS011;58277;47.316;18.908;2024-03-02T03:56:20;36.35;;;16.88;;
70707;SDS011;58277;47.316;18.908;2024-03-02T03:58:43;39.60;;;18.17;;
70707;SDS011;58277;47.316;18.908;2024-03-02T04:01:05;40.80;;;18.13;;
70707;SDS011;58277;47.316;18.908;2024-03-02T04:03:28;37.70;;;17.48;;
70707;SDS011;58277;47.316;18.908;2024-03-02T04:05:51;41.47;;;18.40;;
70707;SDS011;58277;47.316;18.908;2024-03-02T04:08:14;37.60;;;16.58;;
70707;SDS011;58277;47.316;18.908;2024-03-02T04:10:37;38.85;;;17.17;;
70707;SDS011;58277;47.316;18.908;2024-03-02T04:13:00;39.13;;;17.40;;
70707;SDS011;58277;47.316;18.908;2024-03-02T04:15:23;37.97;;;17.77;;
70707;SDS011;58277;47.316;18.908;2024-03-02T04:17:46;36.95;;;16.73;;
70707;SDS011;58277;47.316;18.908;2024-03-02T04:20:09;40.97;;;17.88;;
70707;SDS011;58277;47.316;18.908;2024-03-02T04:22:35;42.30;;;18.33;;
70707;SDS011;58277;47.316;18.908;2024-03-02T04:24:58;39.83;;;17.33;;
70707;SDS011;58277;47.316;18.908;2024-03-02T04:27:21;36.15;;;16.70;;
70707;SDS011;58277;47.316;18.908;2024-03-02T04:29:44;39.67;;;17.73;;
70707;SDS011;58277;47.316;18.908;2024-03-02T04:32:06;40.60;;;17.48;;
70707;SDS011;58277;47.316;18.908;2024-03-02T04:34:29;43.78;;;17.90;;
70707;SDS011;58277;47.316;18.908;2024-03-02T04:36:52;40.57;;;18.00;;
70707;SDS011;58277;47.316;18.908;2024-03-02T04:39:15;43.25;;;17.33;;
70707;SDS011;58277;47.316;18.908;2024-03-02T04:41:38;41.95;;;17.90;;
70707;SDS011;58277;47.316;18.908;2024-03-02T04:44:01;43.85;;;17.30;;
70707;SDS011;58277;47.316;18.908;2024-03-02T04:46:24;42.20;;;18.55;;
70707;SDS011;58277;47.316;18.908;2024-03-02T04:48:47;46.80;;;18.37;;
70707;SDS011;58277;47.316;18.908;2024-03-02T04:51:11;40.85;;;17.35;;
70707;SDS011;58277;47.316;18.908;2024-03-02T04:53:34;40.83;;;17.52;;
70707;SDS011;58277;47.316;18.908;2024-03-02T04:55:56;44.63;;;18.17;;
70707;SDS011;58277;47.316;18.908;2024-03-02T04:58:38;43.00;;;17.90;;
70707;SDS011;58277;47.316;18.908;2024-03-02T05:01:01;40.80;;;17.40;;
70707;SDS011;58277;47.316;18.908;2024-03-02T05:03:23;42.63;;;17.15;;
70707;SDS011;58277;47.316;18.908;2024-03-02T05:05:46;39.80;;;17.05;;
70707;SDS011;58277;47.316;18.908;2024-03-02T05:08:10;40.90;;;17.48;;
70707;SDS011;58277;47.316;18.908;2024-03-02T05:10:34;40.22;;;17.42;;
70707;SDS011;58277;47.316;18.908;2024-03-02T05:12:58;40.83;;;17.20;;
70707;SDS011;58277;47.316;18.908;2024-03-02T05:15:22;41.85;;;17.52;;
70707;SDS011;58277;47.316;18.908;2024-03-02T05:17:45;40.30;;;17.55;;
70707;SDS011;58277;47.316;18.908;2024-03-02T05:20:08;40.63;;;17.35;;
70707;SDS011;58277;47.316;18.908;2024-03-02T05:22:34;43.30;;;18.00;;
70707;SDS011;58277;47.316;18.908;2024-03-02T05:24:58;46.53;;;18.07;;
70707;SDS011;58277;47.316;18.908;2024-03-02T05:27:22;39.90;;;17.33;;
70707;SDS011;58277;47.316;18.908;2024-03-02T05:29:45;42.85;;;17.77;;
70707;SDS011;58277;47.316;18.908;2024-03-02T05:32:07;45.08;;;17.10;;
70707;SDS011;58277;47.316;18.908;2024-03-02T05:34:30;42.17;;;17.23;;
70707;SDS011;58277;47.316;18.908;2024-03-02T05:36:55;43.23;;;17.83;;
70707;SDS011;58277;47.316;18.908;2024-03-02T05:39:18;45.22;;;18.35;;
70707;SDS011;58277;47.316;18.908;2024-03-02T05:41:41;44.72;;;18.38;;
70707;SDS011;58277;47.316;18.908;2024-03-02T05:44:04;42.50;;;18.13;;
70707;SDS011;58277;47.316;18.908;2024-03-02T05:46:27;43.60;;;18.17;;
70707;SDS011;58277;47.316;18.908;2024-03-02T05:48:50;42.60;;;18.07;;
70707;SDS011;58277;47.316;18.908;2024-03-02T05:51:13;45.30;;;19.17;;
70707;SDS011;58277;47.316;18.908;2024-03-02T05:53:35;42.38;;;18.23;;
70707;SDS011;58277;47.316;18.908;2024-03-02T05:56:01;44.45;;;18.05;;
70707;SDS011;58277;47.316;18.908;2024-03-02T05:58:26;47.70;;;19.27;;
70707;SDS011;58277;47.316;18.908;2024-03-02T06:01:08;48.33;;;19.50;;
70707;SDS011;58277;47.316;18.908;2024-03-02T06:03:31;43.47;;;19.17;;
70707;SDS011;58277;47.316;18.908;2024-03-02T06:05:54;49.13;;;18.58;;
70707;SDS011;58277;47.316;18.908;2024-03-02T06:08:18;44.15;;;18.52;;
70707;SDS011;58277;47.316;18.908;2024-03-02T06:10:40;48.35;;;19.23;;
70707;SDS011;58277;47.316;18.908;2024-03-02T06:13:03;49.23;;;19.53;;
70707;SDS011;58277;47.316;18.908;2024-03-02T06:15:26;45.78;;;19.20;;
70707;SDS011;58277;47.316;18.908;2024-03-02T06:17:49;46.45;;;19.17;;
70707;SDS011;58277;47.316;18.908;2024-03-02T06:20:12;45.47;;;18.23;;
70707;SDS011;58277;47.316;18.908;2024-03-02T06:22:35;46.30;;;20.63;;
70707;SDS011;58277;47.316;18.908;2024-03-02T06:24:57;45.83;;;18.97;;
70707;SDS011;58277;47.316;18.908;2024-03-02T06:27:20;45.92;;;19.75;;
70707;SDS011;58277;47.316;18.908;2024-03-02T06:29:43;46.50;;;19.42;;
70707;SDS011;58277;47.316;18.908;2024-03-02T06:32:06;48.17;;;19.42;;
70707;SDS011;58277;47.316;18.908;2024-03-02T06:34:28;47.72;;;20.38;;
70707;SDS011;58277;47.316;18.908;2024-03-02T06:36:51;51.53;;;19.93;;
70707;SDS011;58277;47.316;18.908;2024-03-02T06:39:14;48.78;;;19.83;;
70707;SDS011;58277;47.316;18.908;2024-03-02T06:41:37;49.60;;;20.75;;
70707;SDS011;58277;47.316;18.908;2024-03-02T06:43:59;45.58;;;19.40;;
70707;SDS011;58277;47.316;18.908;2024-03-02T06:46:22;46.30;;;18.80;;
70707;SDS011;58277;47.316;18.908;2024-03-02T06:48:45;48.40;;;20.37;;
70707;SDS011;58277;47.316;18.908;2024-03-02T06:51:08;46.95;;;19.88;;
70707;SDS011;58277;47.316;18.908;2024-03-02T06:53:30;46.28;;;19.60;;
70707;SDS011;58277;47.316;18.908;2024-03-02T06:55:55;48.05;;;20.33;;
70707;SDS011;58277;47.316;18.908;2024-03-02T06:58:18;50.47;;;20.27;;
70707;SDS011;58277;47.316;18.908;2024-03-02T07:00:41;49.00;;;20.67;;
70707;SDS011;58277;47.316;18.908;2024-03-02T07:03:04;45.90;;;19.42;;
70707;SDS011;58277;47.316;18.908;2024-03-02T07:05:27;48.92;;;19.77;;
70707;SDS011;58277;47.316;18.908;2024-03-02T07:07:50;48.63;;;19.55;;
70707;SDS011;58277;47.316;18.908;2024-03-02T07:10:13;51.45;;;19.23;;
70707;SDS011;58277;47.316;18.908;2024-03-02T07:12:36;49.20;;;19.80;;
70707;SDS011;58277;47.316;18.908;2024-03-02T07:14:59;47.72;;;19.63;;
70707;SDS011;58277;47.316;18.908;2024-03-02T07:17:27;44.13;;;18.90;;
70707;SDS011;58277;47.316;18.908;2024-03-02T07:19:50;45.97;;;18.55;;
70707;SDS011;58277;47.316;18.908;2024-03-02T07:22:13;42.70;;;18.98;;
70707;SDS011;58277;47.316;18.908;2024-03-02T07:24:44;44.83;;;18.97;;
70707;SDS011;58277;47.316;18.908;2024-03-02T07:27:11;45.78;;;18.73;;
70707;SDS011;58277;47.316;18.908;2024-03-02T07:29:34;44.50;;;19.45;;
70707;SDS011;58277;47.316;18.908;2024-03-02T07:31:57;46.40;;;19.10;;
70707;SDS011;58277;47.316;18.908;2024-03-02T07:34:19;46.42;;;18.75;;
70707;SDS011;58277;47.316;18.908;2024-03-02T07:36:42;45.97;;;19.50;;
70707;SDS011;58277;47.316;18.908;2024-03-02T07:39:05;46.15;;;19.83;;
70707;SDS011;58277;47.316;18.908;2024-03-02T07:41:28;47.90;;;20.60;;
70707;SDS011;58277;47.316;18.908;2024-03-02T07:43:50;48.53;;;20.17;;
70707;SDS011;58277;47.316;18.908;2024-03-02T07:46:13;48.13;;;19.50;;
70707;SDS011;58277;47.316;18.908;2024-03-02T07:48:36;47.13;;;19.43;;
70707;SDS011;58277;47.316;18.908;2024-03-02T07:51:00;46.20;;;19.60;;
70707;SDS011;58277;47.316;18.908;2024-03-02T07:53:24;51.60;;;21.25;;
70707;SDS011;58277;47.316;18.908;2024-03-02T07:55:47;52.53;;;20.65;;
70707;SDS011;58277;47.316;18.908;2024-03-02T07:58:09;49.03;;;21.20;;
70707;SDS011;58277;47.316;18.908;2024-03-02T08:00:33;48.43;;;20.50;;
70707;SDS011;58277;47.316;18.908;2024-03-02T08:02:57;49.70;;;20.73;;
70707;SDS011;58277;47.316;18.908;2024-03-02T08:05:21;47.60;;;19.92;;
70707;SDS011;58277;47.316;18.908;2024-03-02T08:07:44;54.50;;;21.92;;
70707;SDS011;58277;47.316;18.908;2024-03-02T08:10:09;49.42;;;19.67;;
70707;SDS011;58277;47.316;18.908;2024-03-02T08:12:32;44.93;;;20.07;;
70707;SDS011;58277;47.316;18.908;2024-03-02T08:14:55;44.03;;;18.35;;
70707;SDS011;58277;47.316;18.908;2024-03-02T08:17:18;44.47;;;18.27;;
70707;SDS011;58277;47.316;18.908;2024-03-02T08:19:41;41.92;;;17.92;;
70707;SDS011;58277;47.316;18.908;2024-03-02T08:22:04;42.13;;;18.23;;
70707;SDS011;58277;47.316;18.908;2024-03-02T08:24:27;41.70;;;18.37;;
70707;SDS011;58277;47.316;18.908;2024-03-02T08:26:50;44.80;;;18.65;;
70707;SDS011;58277;47.316;18.908;2024-03-02T08:29:13;40.95;;;17.95;;
70707;SDS011;58277;47.316;18.908;2024-03-02T08:31:35;44.22;;;18.85;;
70707;SDS011;58277;47.316;18.908;2024-03-02T08:34:02;44.70;;;18.48;;
70707;SDS011;58277;47.316;18.908;2024-03-02T08:36:25;44.57;;;18.87;;
70707;SDS011;58277;47.316;18.908;2024-03-02T08:38:51;43.65;;;19.63;;
70707;SDS011;58277;47.316;18.908;2024-03-02T08:41:14;41.88;;;19.05;;
70707;SDS011;58277;47.316;18.908;2024-03-02T08:43:38;43.95;;;19.13;;
70707;SDS011;58277;47.316;18.908;2024-03-02T08:46:03;42.67;;;18.90;;
70707;SDS011;58277;47.316;18.908;2024-03-02T08:48:26;47.33;;;20.10;;
70707;SDS011;58277;47.316;18.908;2024-03-02T08:50:49;47.50;;;19.23;;
70707;SDS011;58277;47.316;18.908;2024-03-02T08:53:12;40.90;;;17.95;;
70707;SDS011;58277;47.316;18.908;2024-03-02T08:55:34;40.58;;;18.50;;
70707;SDS011;58277;47.316;18.908;2024-03-02T08:57:57;43.90;;;19.02;;
70707;SDS011;58277;47.316;18.908;2024-03-02T09:00:20;42.03;;;18.47;;
70707;SDS011;58277;47.316;18.908;2024-03-02T09:02:44;40.75;;;18.08;;
70707;SDS011;58277;47.316;18.908;2024-03-02T09:05:09;42.90;;;18.52;;
70707;SDS011;58277;47.316;18.908;2024-03-02T09:07:33;42.05;;;18.13;;
70707;SDS011;58277;47.316;18.908;2024-03-02T09:09:55;40.30;;;17.35;;
70707;SDS011;58277;47.316;18.908;2024-03-02T09:12:18;40.43;;;17.60;;
70707;SDS011;58277;47.316;18.908;2024-03-02T09:14:42;37.85;;;17.85;;
70707;SDS011;58277;47.316;18.908;2024-03-02T09:17:05;41.92;;;18.13;;
70707;SDS011;58277;47.316;18.908;2024-03-02T09:19:28;40.38;;;17.80;;
70707;SDS011;58277;47.316;18.908;2024-03-02T09:21:50;42.40;;;17.77;;
70707;SDS011;58277;47.316;18.908;2024-03-02T09:24:13;38.17;;;17.17;;
70707;SDS011;58277;47.316;18.908;2024-03-02T09:26:40;42.60;;;17.02;;
70707;SDS011;58277;47.316;18.908;2024-03-02T09:29:02;38.55;;;16.85;;
70707;SDS011;58277;47.316;18.908;2024-03-02T09:31:25;39.85;;;16.77;;
70707;SDS011;58277;47.316;18.908;2024-03-02T09:33:48;38.20;;;16.58;;
70707;SDS011;58277;47.316;18.908;2024-03-02T09:36:20;34.63;;;15.87;;
70707;SDS011;58277;47.316;18.908;2024-03-02T09:38:45;36.40;;;15.75;;
70707;SDS011;58277;47.316;18.908;2024-03-02T09:41:08;34.00;;;15.40;;
70707;SDS011;58277;47.316;18.908;2024-03-02T09:43:31;36.63;;;15.57;;
70707;SDS011;58277;47.316;18.908;2024-03-02T09:45:54;36.08;;;15.50;;
70707;SDS011;58277;47.316;18.908;2024-03-02T09:48:17;35.17;;;15.23;;
70707;SDS011;58277;47.316;18.908;2024-03-02T09:50:41;33.83;;;15.00;;
70707;SDS011;58277;47.316;18.908;2024-03-02T09:53:03;35.00;;;15.77;;
70707;SDS011;58277;47.316;18.908;2024-03-02T09:55:27;30.80;;;13.95;;
70707;SDS011;58277;47.316;18.908;2024-03-02T09:57:50;34.03;;;15.18;;
70707;SDS011;58277;47.316;18.908;2024-03-02T10:00:13;31.53;;;14.53;;
70707;SDS011;58277;47.316;18.908;2024-03-02T10:02:37;32.25;;;15.63;;
70707;SDS011;58277;47.316;18.908;2024-03-02T10:05:01;30.83;;;15.40;;
70707;SDS011;58277;47.316;18.908;2024-03-02T10:07:26;32.53;;;14.85;;
70707;SDS011;58277;47.316;18.908;2024-03-02T10:09:49;28.05;;;14.15;;
70707;SDS011;58277;47.316;18.908;2024-03-02T10:12:15;29.27;;;13.80;;
70707;SDS011;58277;47.316;18.908;2024-03-02T10:14:39;29.70;;;13.27;;
70707;SDS011;58277;47.316;18.908;2024-03-02T10:17:06;28.70;;;13.63;;
70707;SDS011;58277;47.316;18.908;2024-03-02T10:19:29;28.85;;;13.32;;
70707;SDS011;58277;47.316;18.908;2024-03-02T10:21:55;27.65;;;13.38;;
70707;SDS011;58277;47.316;18.908;2024-03-02T10:24:22;26.83;;;12.30;;
70707;SDS011;58277;47.316;18.908;2024-03-02T10:26:45;27.27;;;12.40;;
70707;SDS011;58277;47.316;18.908;2024-03-02T10:29:09;25.10;;;12.50;;
70707;SDS011;58277;47.316;18.908;2024-03-02T10:31:32;25.73;;;11.85;;
70707;SDS011;58277;47.316;18.908;2024-03-02T10:33:55;28.15;;;13.05;;
70707;SDS011;58277;47.316;18.908;2024-03-02T10:36:20;26.60;;;12.60;;
70707;SDS011;58277;47.316;18.908;2024-03-02T10:38:43;26.83;;;12.95;;
70707;SDS011;58277;47.316;18.908;2024-03-02T10:41:07;25.52;;;12.60;;
70707;SDS011;58277;47.316;18.908;2024-03-02T10:43:31;24.52;;;11.50;;
70707;SDS011;58277;47.316;18.908;2024-03-02T10:45:54;22.88;;;11.73;;
70707;SDS011;58277;47.316;18.908;2024-03-02T10:48:19;20.73;;;10.67;;
70707;SDS011;58277;47.316;18.908;2024-03-02T10:50:44;22.48;;;11.02;;
70707;SDS011;58277;47.316;18.908;2024-03-02T10:53:07;24.17;;;11.55;;
70707;SDS011;58277;47.316;18.908;2024-03-02T10:55:30;22.17;;;11.20;;
70707;SDS011;58277;47.316;18.908;2024-03-02T10:57:54;21.85;;;10.50;;
70707;SDS011;58277;47.316;18.908;2024-03-02T11:00:19;19.27;;;9.83;;
70707;SDS011;58277;47.316;18.908;2024-03-02T11:02:51;21.65;;;10.73;;
70707;SDS011;58277;47.316;18.908;2024-03-02T11:05:16;21.10;;;10.75;;
70707;SDS011;58277;47.316;18.908;2024-03-02T11:07:47;21.05;;;10.80;;
70707;SDS011;58277;47.316;18.908;2024-03-02T11:10:11;23.15;;;10.98;;
70707;SDS011;58277;47.316;18.908;2024-03-02T11:12:38;21.63;;;10.87;;
70707;SDS011;58277;47.316;18.908;2024-03-02T11:15:10;24.75;;;12.30;;
70707;SDS011;58277;47.316;18.908;2024-03-02T11:17:36;23.70;;;11.63;;
70707;SDS011;58277;47.316;18.908;2024-03-02T11:20:03;22.83;;;11.43;;
70707;SDS011;58277;47.316;18.908;2024-03-02T11:22:27;22.65;;;10.80;;
70707;SDS011;58277;47.316;18.908;2024-03-02T11:24:52;22.23;;;10.97;;
70707;SDS011;58277;47.316;18.908;2024-03-02T11:27:20;21.02;;;9.75;;
70707;SDS011;58277;47.316;18.908;2024-03-02T11:30:08;22.02;;;10.73;;
70707;SDS011;58277;47.316;18.908;2024-03-02T11:32:34;21.30;;;9.68;;
70707;SDS011;58277;47.316;18.908;2024-03-02T11:34:57;21.30;;;10.43;;
70707;SDS011;58277;47.316;18.908;2024-03-02T11:37:20;19.97;;;9.87;;
70707;SDS011;58277;47.316;18.908;2024-03-02T11:39:44;19.52;;;9.73;;
70707;SDS011;58277;47.316;18.908;2024-03-02T11:42:08;20.50;;;10.68;;
70707;SDS011;58277;47.316;18.908;2024-03-02T11:44:37;20.40;;;10.43;;
70707;SDS011;58277;47.316;18.908;2024-03-02T11:47:01;17.27;;;9.20;;
70707;SDS011;58277;47.316;18.908;2024-03-02T11:49:36;16.83;;;9.13;;
70707;SDS011;58277;47.316;18.908;2024-03-02T11:52:03;19.13;;;9.70;;
70707;SDS011;58277;47.316;18.908;2024-03-02T11:54:27;17.20;;;9.10;;
70707;SDS011;58277;47.316;18.908;2024-03-02T11:56:55;18.30;;;9.48;;
70707;SDS011;58277;47.316;18.908;2024-03-02T11:59:18;16.55;;;8.52;;
70707;SDS011;58277;47.316;18.908;2024-03-02T12:01:42;16.30;;;8.30;;
70707;SDS011;58277;47.316;18.908;2024-03-02T12:04:06;16.40;;;8.40;;
70707;SDS011;58277;47.316;18.908;2024-03-02T12:06:30;16.38;;;8.70;;
70707;SDS011;58277;47.316;18.908;2024-03-02T12:08:53;14.52;;;7.90;;
70707;SDS011;58277;47.316;18.908;2024-03-02T12:11:17;15.70;;;8.25;;
70707;SDS011;58277;47.316;18.908;2024-03-02T12:13:40;16.67;;;8.30;;
70707;SDS011;58277;47.316;18.908;2024-03-02T12:16:02;20.10;;;9.75;;
70707;SDS011;58277;47.316;18.908;2024-03-02T12:18:26;17.15;;;8.85;;
70707;SDS011;58277;47.316;18.908;2024-03-02T12:20:49;18.95;;;9.07;;
70707;SDS011;58277;47.316;18.908;2024-03-02T12:23:15;18.98;;;9.68;;
70707;SDS011;58277;47.316;18.908;2024-03-02T12:25:39;16.03;;;8.50;;
70707;SDS011;58277;47.316;18.908;2024-03-02T12:28:02;14.85;;;7.50;;
70707;SDS011;58277;47.316;18.908;2024-03-02T12:30:26;14.27;;;7.65;;
70707;SDS011;58277;47.316;18.908;2024-03-02T12:32:53;13.13;;;6.85;;
70707;SDS011;58277;47.316;18.908;2024-03-02T12:35:17;13.70;;;7.35;;
70707;SDS011;58277;47.316;18.908;2024-03-02T12:37:50;15.03;;;7.70;;
70707;SDS011;58277;47.316;18.908;2024-03-02T12:40:15;15.20;;;8.25;;
70707;SDS011;58277;47.316;18.908;2024-03-02T12:42:40;15.43;;;8.10;;
70707;SDS011;58277;47.316;18.908;2024-03-02T12:45:07;16.75;;;8.60;;
70707;SDS011;58277;47.316;18.908;2024-03-02T12:47:32;17.63;;;9.10;;
70707;SDS011;58277;47.316;18.908;2024-03-02T12:49:56;20.37;;;9.20;;
70707;SDS011;58277;47.316;18.908;2024-03-02T12:52:20;17.33;;;9.00;;
70707;SDS011;58277;47.316;18.908;2024-03-02T12:54:44;19.75;;;9.23;;
70707;SDS011;58277;47.316;18.908;2024-03-02T12:57:07;17.65;;;9.27;;
70707;SDS011;58277;47.316;18.908;2024-03-02T12:59:29;18.42;;;9.45;;
70707;SDS011;58277;47.316;18.908;2024-03-02T13:01:54;21.00;;;9.37;;
70707;SDS011;58277;47.316;18.908;2024-03-02T13:04:26;21.70;;;9.68;;
70707;SDS011;58277;47.316;18.908;2024-03-02T13:06:51;19.42;;;9.15;;
70707;SDS011;58277;47.316;18.908;2024-03-02T13:09:15;18.88;;;9.35;;
70707;SDS011;58277;47.316;18.908;2024-03-02T13:11:38;20.90;;;9.38;;
70707;SDS011;58277;47.316;18.908;2024-03-02T13:14:04;22.47;;;10.20;;
70707;SDS011;58277;47.316;18.908;2024-03-02T13:16:27;21.27;;;9.60;;
70707;SDS011;58277;47.316;18.908;2024-03-02T13:18:58;21.02;;;10.00;;
70707;SDS011;58277;47.316;18.908;2024-03-02T13:21:22;24.08;;;10.45;;
70707;SDS011;58277;47.316;18.908;2024-03-02T13:23:45;24.38;;;11.00;;
70707;SDS011;58277;47.316;18.908;2024-03-02T13:26:07;27.23;;;11.37;;
70707;SDS011;58277;47.316;18.908;2024-03-02T13:28:32;28.75;;;12.35;;
70707;SDS011;58277;47.316;18.908;2024-03-02T13:30:55;27.95;;;12.20;;
70707;SDS011;58277;47.316;18.908;2024-03-02T13:33:18;28.15;;;11.90;;
70707;SDS011;58277;47.316;18.908;2024-03-02T13:35:47;29.98;;;12.38;;
70707;SDS011;58277;47.316;18.908;2024-03-02T13:38:11;28.77;;;12.27;;
70707;SDS011;58277;47.316;18.908;2024-03-02T13:40:33;31.48;;;13.13;;
70707;SDS011;58277;47.316;18.908;2024-03-02T13:42:58;32.78;;;12.38;;
70707;SDS011;58277;47.316;18.908;2024-03-02T13:45:21;31.20;;;13.43;;
70707;SDS011;58277;47.316;18.908;2024-03-02T13:47:44;33.78;;;13.95;;
70707;SDS011;58277;47.316;18.908;2024-03-02T13:50:07;32.73;;;14.20;;
70707;SDS011;58277;47.316;18.908;2024-03-02T13:52:30;35.35;;;14.25;;
70707;SDS011;58277;47.316;18.908;2024-03-02T13:54:53;36.60;;;14.75;;
70707;SDS011;58277;47.316;18.908;2024-03-02T13:57:16;35.85;;;14.68;;